Time;durP1;ratioP1;P1;durP2;ratioP2;P2;SDS_P1;SDS_P2;PMS_P1;PMS_P2;Temp;Humidity;BMP_temperature;BMP_pressure;BME280_temperature;BME280_humidity;BME280_pressure;Samples;Min_cycle;Max_cycle;Signal;HPM_P1;HPM_P2
2020/12/07 00:01:42;;;;;;;15.43;10.73;;;;;;;6.88;82.73;97237.31;4976020;28;20034;-63
2020/12/07 00:04:07;;;;;;;18.10;11.67;;;;;;;6.81;83.05;97241.75;4978675;28;20030;-62
2020/12/07 00:06:33;;;;;;;19.20;11.80;;;;;;;6.79;82.80;97240.94;4977653;28;20043;-62
2020/12/07 00:08:58;;;;;;;17.13;10.33;;;;;;;6.91;82.42;97236.41;4979388;28;20456;-62
2020/12/07 00:11:23;;;;;;;15.70;10.67;;;;;;;6.85;83.35;97239.94;4977643;28;20034;-62
2020/12/07 00:13:49;;;;;;;17.47;10.90;;;;;;;6.86;83.59;97233.97;4979431;28;20041;-62
2020/12/07 00:16:14;;;;;;;18.80;11.63;;;;;;;6.83;83.65;97229.78;4978162;28;20041;-61
2020/12/07 00:18:40;;;;;;;17.60;11.00;;;;;;;6.75;83.81;97224.06;4978006;28;20395;-63
2020/12/07 00:21:09;;;;;;;17.40;11.17;;;;;;;6.80;83.45;97217.16;4977762;28;20031;-62
2020/12/07 00:23:36;;;;;;;15.40;11.10;;;;;;;6.71;84.34;97221.63;4974247;28;20419;-62
2020/12/07 00:26:02;;;;;;;16.93;11.27;;;;;;;6.79;83.81;97207.81;4978570;28;20061;-62
2020/12/07 00:28:27;;;;;;;15.57;10.60;;;;;;;6.71;84.77;97203.81;4978835;28;20460;-62
2020/12/07 00:30:52;;;;;;;17.73;11.63;;;;;;;6.61;84.77;97208.34;4986039;28;20031;-62
2020/12/07 00:33:18;;;;;;;20.10;13.10;;;;;;;6.57;84.92;97205.91;4984571;28;20057;-62
2020/12/07 00:35:43;;;;;;;16.53;10.67;;;;;;;6.65;85.16;97209.09;4997970;28;20034;-63
2020/12/07 00:38:09;;;;;;;16.53;10.50;;;;;;;6.67;84.91;97209.88;4997481;28;20026;-62
2020/12/07 00:40:34;;;;;;;17.97;11.23;;;;;;;6.64;85.35;97209.94;4981200;28;20035;-63
2020/12/07 00:43:00;;;;;;;19.83;12.30;;;;;;;6.54;85.50;97219.53;4977530;28;20030;-63
2020/12/07 00:45:25;;;;;;;18.63;11.27;;;;;;;6.45;85.54;97224.03;4977573;28;20023;-62
2020/12/07 00:47:51;;;;;;;16.13;11.90;;;;;;;6.42;85.78;97223.22;4977856;28;20054;-63
2020/12/07 00:50:16;;;;;;;18.33;11.40;;;;;;;6.49;85.60;97234.13;4977092;28;20372;-62
2020/12/07 00:52:42;;;;;;;18.47;11.60;;;;;;;6.53;85.30;97225.53;4978152;28;20065;-63
2020/12/07 00:55:07;;;;;;;17.67;11.30;;;;;;;6.46;85.44;97218.06;4976488;28;20023;-63
2020/12/07 00:57:32;;;;;;;19.83;11.40;;;;;;;6.42;85.92;97213.06;4978290;28;20385;-63
2020/12/07 00:59:58;;;;;;;19.37;11.37;;;;;;;6.48;85.35;97213.78;4976459;28;20031;-62
2020/12/07 01:02:23;;;;;;;16.50;12.00;;;;;;;6.45;85.56;97203.69;4960120;28;20030;-63
2020/12/07 01:04:49;;;;;;;17.90;11.50;;;;;;;6.44;85.81;97200.28;4977156;28;20037;-62
2020/12/07 01:07:15;;;;;;;16.33;10.67;;;;;;;6.42;85.64;97204.56;4976962;28;20023;-63
2020/12/07 01:09:40;;;;;;;17.47;11.67;;;;;;;6.48;85.87;97212.06;4977542;28;20027;-63
2020/12/07 01:12:06;;;;;;;17.67;11.03;;;;;;;6.41;85.97;97218.16;4975459;28;20042;-61
2020/12/07 01:14:31;;;;;;;18.07;10.57;;;;;;;6.47;85.58;97209.56;4977407;28;20023;-61
2020/12/07 01:16:58;;;;;;;21.00;11.00;;;;;;;6.41;85.67;97206.28;4976417;28;20023;-62
2020/12/07 01:19:25;;;;;;;18.40;11.73;;;;;;;6.42;85.62;97213.06;4976026;28;20464;-63
2020/12/07 01:21:50;;;;;;;18.20;11.70;;;;;;;6.37;85.68;97206.41;4976082;28;20058;-62
2020/12/07 01:24:16;;;;;;;19.13;11.57;;;;;;;6.33;85.67;97212.44;4977522;28;20455;-61
2020/12/07 01:26:42;;;;;;;17.50;12.17;;;;;;;6.31;86.07;97214.22;4976621;28;20063;-62
2020/12/07 01:29:08;;;;;;;16.10;10.40;;;;;;;6.41;85.75;97213.09;4959909;28;20113;-61
2020/12/07 01:31:33;;;;;;;17.60;11.43;;;;;;;6.39;85.84;97207.22;4975842;28;20467;-62
2020/12/07 01:33:59;;;;;;;18.43;10.97;;;;;;;6.33;85.88;97207.34;4976244;28;20057;-63
2020/12/07 01:36:24;;;;;;;16.37;11.03;;;;;;;6.37;85.54;97203.84;4976305;28;20026;-63
2020/12/07 01:38:50;;;;;;;19.43;11.57;;;;;;;6.41;85.75;97208.00;4976834;28;20030;-63
2020/12/07 01:41:16;;;;;;;15.17;10.00;;;;;;;6.34;85.86;97217.50;4976184;28;20026;-61
2020/12/07 01:43:41;;;;;;;16.43;9.77;;;;;;;6.34;86.00;97211.56;4976656;28;20034;-62
2020/12/07 01:46:07;;;;;;;17.10;10.37;;;;;;;6.28;86.26;97204.91;4975901;28;20101;-61
2020/12/07 01:48:33;;;;;;;15.33;10.57;;;;;;;6.33;85.73;97197.16;4974978;28;20174;-62
2020/12/07 01:50:59;;;;;;;16.73;12.60;;;;;;;6.42;85.23;97197.78;4976344;28;20027;-62
2020/12/07 01:53:25;;;;;;;16.53;10.57;;;;;;;6.32;85.35;97193.78;4975090;28;20536;-62
2020/12/07 01:55:52;;;;;;;16.00;10.43;;;;;;;6.33;85.77;97195.47;4976076;28;20023;-62
2020/12/07 01:58:18;;;;;;;21.17;12.73;;;;;;;6.34;85.89;97186.97;4975839;28;20089;-61
2020/12/07 02:00:43;;;;;;;16.40;11.07;;;;;;;6.31;85.50;97179.41;4976596;28;20026;-61
2020/12/07 02:03:11;;;;;;;16.57;9.70;;;;;;;6.31;85.84;97184.50;4975355;28;20037;-62
2020/12/07 02:05:38;;;;;;;19.20;12.70;;;;;;;6.24;86.05;97193.16;4976623;28;20031;-61
2020/12/07 02:08:17;;;;;;;16.30;10.93;;;;;;;6.25;85.75;97182.09;4975280;28;20407;-62
2020/12/07 02:10:44;;;;;;;18.87;11.73;;;;;;;6.24;86.00;97184.69;4975674;28;20341;-62
2020/12/07 02:13:09;;;;;;;18.73;10.97;;;;;;;6.20;86.15;97196.63;4975264;28;20329;-62
2020/12/07 02:15:35;;;;;;;16.33;11.50;;;;;;;6.24;86.07;97203.31;4976771;28;20037;-62
2020/12/07 02:18:03;;;;;;;19.93;12.40;;;;;;;6.27;86.25;97185.47;4975011;28;20027;-62
2020/12/07 02:20:29;;;;;;;19.93;11.40;;;;;;;6.24;85.97;97203.31;4976181;28;20471;-62
2020/12/07 02:22:55;;;;;;;17.77;11.07;;;;;;;6.17;85.61;97206.91;4974829;28;20023;-62
2020/12/07 02:25:21;;;;;;;18.20;10.97;;;;;;;6.22;85.67;97205.09;4976528;28;20429;-62
2020/12/07 02:27:48;;;;;;;17.97;12.03;;;;;;;6.31;85.49;97194.69;4976113;28;20062;-62
2020/12/07 02:30:15;;;;;;;16.30;11.80;;;;;;;6.28;85.27;97192.19;4995922;28;20026;-62
2020/12/07 02:32:42;;;;;;;16.17;11.03;;;;;;;6.22;85.75;97205.09;4993991;28;20022;-62
2020/12/07 02:35:07;;;;;;;16.73;11.93;;;;;;;6.23;85.74;97211.84;4956660;29;20023;-62
2020/12/07 02:37:32;;;;;;;16.90;11.27;;;;;;;6.22;85.29;97222.06;4955693;29;20046;-62
2020/12/07 02:39:58;;;;;;;20.87;12.73;;;;;;;6.10;86.09;97215.56;4972431;28;20027;-62
2020/12/07 02:42:23;;;;;;;14.90;10.83;;;;;;;6.19;85.41;97222.97;4974895;28;20030;-62
2020/12/07 02:44:49;;;;;;;18.80;11.40;;;;;;;6.25;85.31;97211.81;4975311;28;20050;-62
2020/12/07 02:47:14;;;;;;;15.97;11.40;;;;;;;6.24;84.88;97220.28;4975195;28;20487;-62
2020/12/07 02:49:39;;;;;;;17.77;11.90;;;;;;;6.22;85.00;97228.00;4975148;28;20451;-62
2020/12/07 02:52:05;;;;;;;18.00;12.80;;;;;;;6.17;85.52;97219.63;4958370;28;20023;-62
2020/12/07 02:54:30;;;;;;;16.47;12.80;;;;;;;6.18;85.26;97221.31;4979937;28;20015;-61
2020/12/07 02:56:55;;;;;;;17.83;12.57;;;;;;;6.18;85.59;97220.47;4975419;28;20041;-61
2020/12/07 02:59:21;;;;;;;17.43;12.27;;;;;;;6.16;85.40;97219.66;4973795;28;20027;-62
2020/12/07 03:01:46;;;;;;;19.43;11.73;;;;;;;6.19;85.28;97212.81;4976322;28;20035;-61
2020/12/07 03:04:11;;;;;;;16.30;11.70;;;;;;;6.25;85.50;97225.38;4973816;28;20038;-61
2020/12/07 03:06:37;;;;;;;16.03;11.00;;;;;;;6.22;85.17;97227.16;4975174;28;20030;-61
2020/12/07 03:09:02;;;;;;;19.40;13.03;;;;;;;6.22;85.38;97227.16;4974437;28;20022;-61
2020/12/07 03:11:28;;;;;;;22.13;12.47;;;;;;;6.21;84.92;97210.19;4975220;28;20070;-62
2020/12/07 03:13:53;;;;;;;18.47;11.83;;;;;;;6.29;84.98;97219.31;4974135;28;20210;-63
2020/12/07 03:16:18;;;;;;;16.40;11.87;;;;;;;6.21;85.09;97225.47;4974946;28;20060;-61
2020/12/07 03:18:44;;;;;;;17.50;12.30;;;;;;;6.23;85.52;97231.38;4974202;28;20030;-61
2020/12/07 03:21:09;;;;;;;18.43;11.90;;;;;;;6.20;84.84;97232.25;4975694;28;20026;-62
2020/12/07 03:23:34;;;;;;;14.17;11.00;;;;;;;6.23;85.09;97216.94;4973836;28;20029;-61
2020/12/07 03:26:00;;;;;;;16.40;11.83;;;;;;;6.20;85.22;97213.63;4975335;28;20026;-62
2020/12/07 03:28:25;;;;;;;16.30;12.30;;;;;;;6.21;84.98;97228.84;4973913;28;20077;-61
2020/12/07 03:30:51;;;;;;;15.60;12.93;;;;;;;6.20;85.31;97224.63;4975765;28;20031;-62
2020/12/07 03:33:16;;;;;;;15.37;11.23;;;;;;;6.17;85.28;97232.34;4972615;28;20129;-62
2020/12/07 03:35:42;;;;;;;17.07;12.20;;;;;;;5.98;86.13;97226.84;4977417;28;20030;-62
2020/12/07 03:38:07;;;;;;;18.83;12.80;;;;;;;6.02;86.06;97232.72;4973607;28;20027;-62
2020/12/07 03:40:34;;;;;;;16.43;13.63;;;;;;;6.09;86.00;97225.78;4973512;28;20042;-62
2020/12/07 03:43:00;;;;;;;14.73;11.10;;;;;;;6.17;85.38;97229.81;4974691;28;20027;-62
2020/12/07 03:45:26;;;;;;;15.73;12.10;;;;;;;6.16;85.43;97234.91;4973845;28;20077;-62
2020/12/07 03:47:51;;;;;;;17.23;12.90;;;;;;;6.20;85.06;97245.00;4974943;28;20379;-62
2020/12/07 03:50:17;;;;;;;13.87;10.77;;;;;;;6.19;85.28;97239.97;4973291;28;20042;-62
2020/12/07 03:52:42;;;;;;;17.77;12.10;;;;;;;6.16;85.14;97240.84;4975048;28;20113;-62
2020/12/07 03:55:07;;;;;;;16.03;11.60;;;;;;;6.18;84.93;97246.75;4973867;28;20395;-62
2020/12/07 03:57:33;;;;;;;18.67;12.53;;;;;;;6.11;84.83;97246.94;4975039;28;20494;-62
2020/12/07 03:59:58;;;;;;;15.63;11.83;;;;;;;6.07;85.58;97245.34;4973994;28;20079;-62
2020/12/07 04:02:24;;;;;;;13.77;11.03;;;;;;;6.13;85.33;97245.19;4974503;28;20046;-62
2020/12/07 04:05:02;;;;;;;16.10;12.13;;;;;;;6.18;84.86;97244.22;4974017;28;20026;-62
2020/12/07 04:07:27;;;;;;;14.90;11.40;;;;;;;6.19;84.96;97228.06;4974317;28;20026;-62
2020/12/07 04:09:52;;;;;;;15.67;12.93;;;;;;;6.19;85.14;97234.88;4974007;28;20472;-62
2020/12/07 04:12:18;;;;;;;18.67;13.00;;;;;;;6.20;85.27;97237.34;4974268;28;20027;-62
2020/12/07 04:14:43;;;;;;;20.23;12.27;;;;;;;6.15;85.20;97233.28;4974297;28;20459;-62
2020/12/07 04:17:09;;;;;;;14.20;10.67;;;;;;;6.21;85.31;97233.09;4973152;28;20037;-62
2020/12/07 04:19:34;;;;;;;15.67;12.10;;;;;;;6.14;84.83;97231.59;4973738;28;20059;-62
2020/12/07 04:22:00;;;;;;;14.77;12.97;;;;;;;6.16;85.25;97235.75;4973825;28;20113;-63
2020/12/07 04:24:25;;;;;;;17.47;11.17;;;;;;;6.07;85.68;97240.25;4974151;28;20020;-61
2020/12/07 04:26:50;;;;;;;14.70;11.23;;;;;;;6.07;85.32;97241.06;4972859;28;20140;-61
2020/12/07 04:29:16;;;;;;;15.87;12.77;;;;;;;6.11;84.53;97247.75;4975016;28;20031;-61
2020/12/07 04:31:41;;;;;;;17.67;12.37;;;;;;;6.11;84.82;97254.56;4982067;28;20057;-63
2020/12/07 04:34:06;;;;;;;17.57;12.40;;;;;;;6.06;85.00;97261.47;4974788;28;20022;-62
2020/12/07 04:36:32;;;;;;;16.90;11.10;;;;;;;6.19;85.28;97257.78;4988694;28;20027;-63
2020/12/07 04:38:57;;;;;;;15.03;11.53;;;;;;;6.16;85.05;97257.81;4993623;28;20042;-62
2020/12/07 04:41:22;;;;;;;17.10;12.60;;;;;;;6.11;85.44;97260.47;4988195;28;20106;-62
2020/12/07 04:43:49;;;;;;;14.73;12.40;;;;;;;6.06;85.47;97253.84;4974359;28;20053;-63
2020/12/07 04:46:15;;;;;;;16.37;12.23;;;;;;;5.98;85.66;97257.38;4973032;28;20138;-62
2020/12/07 04:48:42;;;;;;;18.27;13.40;;;;;;;6.02;86.16;97257.31;4959880;28;20049;-63
2020/12/07 04:51:09;;;;;;;17.47;12.80;;;;;;;6.03;86.56;97244.53;4976642;28;20022;-63
2020/12/07 04:53:35;;;;;;;16.10;12.90;;;;;;;5.98;86.62;97244.66;4962985;28;20049;-63
2020/12/07 04:56:01;;;;;;;18.63;13.53;;;;;;;5.98;86.50;97251.47;4979466;28;20035;-61
2020/12/07 04:58:27;;;;;;;15.77;12.63;;;;;;;6.02;86.61;97252.25;4980149;28;20027;-63
2020/12/07 05:00:52;;;;;;;16.63;12.00;;;;;;;6.11;86.22;97252.03;4981207;28;20462;-63
2020/12/07 05:03:18;;;;;;;17.13;12.67;;;;;;;6.03;86.51;97244.53;4978901;28;20030;-62
2020/12/07 05:05:43;;;;;;;17.30;12.83;;;;;;;6.02;86.49;97248.00;4976482;28;20106;-62
2020/12/07 05:08:09;;;;;;;15.83;12.40;;;;;;;6.00;86.85;97243.78;4978249;28;20034;-62
2020/12/07 05:10:42;;;;;;;17.93;13.50;;;;;;;5.98;87.22;97249.75;4976238;28;20452;-62
2020/12/07 05:14:12;;;;;;;17.40;12.07;;;;;;;5.97;86.77;97254.88;4978097;28;20448;-62
2020/12/07 05:16:03;;;;;;;18.70;12.70;;;;;;;5.96;87.06;97260.84;4963432;28;20034;-62
2020/12/07 05:18:37;;;;;;;19.50;12.20;;;;;;;6.03;86.60;97264.06;4977596;28;20352;-62
2020/12/07 05:21:03;;;;;;;14.17;12.10;;;;;;;5.98;87.10;97277.72;4975723;28;20026;-62
2020/12/07 05:23:34;;;;;;;20.93;13.27;;;;;;;5.96;86.98;97281.19;4977772;28;20034;-62
2020/12/07 05:26:01;;;;;;;15.47;11.43;;;;;;;5.98;87.25;97287.09;4976086;28;20038;-62
2020/12/07 05:28:38;;;;;;;14.10;11.83;;;;;;;6.06;86.97;97292.00;4977692;28;20031;-63
2020/12/07 05:31:04;;;;;;;20.27;13.43;;;;;;;6.04;87.00;97286.94;4975903;28;20027;-62
2020/12/07 05:33:31;;;;;;;14.93;10.87;;;;;;;5.97;86.92;97288.78;4977576;28;20066;-62
2020/12/07 05:35:57;;;;;;;14.77;11.33;;;;;;;6.03;87.02;97290.34;4979288;28;20022;-62
2020/12/07 05:38:33;;;;;;;14.53;11.57;;;;;;;6.02;86.62;97292.94;4997162;28;20380;-61
2020/12/07 05:41:04;;;;;;;16.63;13.00;;;;;;;6.02;87.07;97291.22;4992411;28;20042;-62
2020/12/07 05:43:31;;;;;;;15.23;10.87;;;;;;;5.94;87.40;97290.56;4977438;28;20034;-61
2020/12/07 05:45:58;;;;;;;15.50;12.93;;;;;;;6.05;86.82;97293.69;4975664;28;20031;-61
2020/12/07 05:48:28;;;;;;;15.27;11.60;;;;;;;6.09;86.76;97292.75;4960158;28;20043;-63
2020/12/07 05:50:55;;;;;;;15.20;11.27;;;;;;;6.05;86.74;97293.69;4975404;28;20500;-62
2020/12/07 05:53:23;;;;;;;13.73;11.10;;;;;;;6.06;86.54;97297.91;4959590;28;20033;-62
2020/12/07 05:55:48;;;;;;;12.83;10.40;;;;;;;6.00;86.56;97309.94;4976076;28;20360;-62
2020/12/07 05:58:20;;;;;;;14.37;10.20;;;;;;;6.12;86.65;97314.72;4976406;28;20027;-62
2020/12/07 06:00:47;;;;;;;14.97;11.13;;;;;;;6.16;85.79;97317.19;4975940;28;20329;-62
2020/12/07 06:03:17;;;;;;;16.33;10.63;;;;;;;6.10;86.54;97314.78;4971329;28;20092;-62
2020/12/07 06:05:44;;;;;;;15.43;10.63;;;;;;;6.07;86.56;97325.00;4990843;28;20019;-62
2020/12/07 06:08:15;;;;;;;15.20;11.03;;;;;;;6.10;86.18;97319.88;4995677;28;20520;-62
2020/12/07 06:10:44;;;;;;;14.80;10.30;;;;;;;6.11;86.35;97320.72;4991951;28;20484;-62
2020/12/07 06:13:20;;;;;;;13.40;10.77;;;;;;;6.07;86.37;97319.91;4976360;28;20416;-62
2020/12/07 06:15:47;;;;;;;14.47;10.67;;;;;;;6.00;86.64;97325.19;4975021;28;20124;-61
2020/12/07 06:18:35;;;;;;;16.43;12.10;;;;;;;6.03;86.94;97335.28;4976561;28;20022;-62
2020/12/07 06:21:19;;;;;;;15.67;11.13;;;;;;;6.06;86.45;97336.09;4970482;28;20452;-62
2020/12/07 06:23:47;;;;;;;16.43;11.10;;;;;;;6.04;86.92;97327.63;4976031;28;20427;-62
2020/12/07 06:26:15;;;;;;;16.30;11.20;;;;;;;6.00;87.18;97330.28;4974919;28;20030;-61
2020/12/07 06:28:42;;;;;;;14.07;11.23;;;;;;;5.98;87.20;97327.78;4976457;28;20023;-62
2020/12/07 06:31:09;;;;;;;19.37;12.10;;;;;;;6.00;87.42;97343.84;4975478;28;20019;-62
2020/12/07 06:33:54;;;;;;;17.13;12.43;;;;;;;6.02;87.31;97342.09;4975244;28;20041;-62
2020/12/07 06:36:23;;;;;;;17.03;11.80;;;;;;;6.05;87.00;97344.56;4982025;28;20465;-62
2020/12/07 06:38:49;;;;;;;15.50;11.00;;;;;;;5.97;86.97;97341.38;4995948;28;20030;-62
2020/12/07 06:41:28;;;;;;;14.50;10.20;;;;;;;6.03;87.13;97336.13;4996167;28;20176;-62
2020/12/07 06:43:58;;;;;;;14.43;10.90;;;;;;;6.08;87.00;97348.75;4995790;28;20084;-61
2020/12/07 06:47:13;;;;;;;18.27;10.77;;;;;;;6.05;87.30;97348.81;4995538;28;20025;-63
2020/12/07 06:52:15;;;;;;;14.43;10.57;;;;;;;6.04;86.88;97362.41;4976637;28;20387;-63
2020/12/07 06:57:30;;;;;;;17.90;12.27;;;;;;;6.03;86.70;97366.66;4976618;28;20101;-63
2020/12/07 07:00:19;;;;;;;14.70;10.23;;;;;;;6.05;86.67;97364.09;4976453;28;20066;-63
2020/12/07 07:02:49;;;;;;;18.37;12.43;;;;;;;6.12;86.38;97366.47;4968587;28;20113;-63
2020/12/07 07:05:16;;;;;;;15.47;10.53;;;;;;;6.10;86.71;97358.03;4976613;28;20403;-63
2020/12/07 07:07:42;;;;;;;14.17;10.77;;;;;;;5.98;86.93;97355.75;4976355;28;20462;-63
2020/12/07 07:10:10;;;;;;;15.77;11.47;;;;;;;6.06;86.96;97355.59;4978174;28;20109;-63
2020/12/07 07:12:36;;;;;;;18.00;12.13;;;;;;;6.01;87.11;97362.47;4995522;28;20022;-63
2020/12/07 07:15:04;;;;;;;15.70;12.60;;;;;;;6.05;86.93;97367.47;4995279;28;20049;-63
2020/12/07 07:17:31;;;;;;;17.33;12.43;;;;;;;6.10;86.87;97369.91;4995424;28;20023;-63
2020/12/07 07:19:57;;;;;;;17.53;13.30;;;;;;;6.08;86.58;97369.09;4988410;28;20109;-63
2020/12/07 07:22:24;;;;;;;18.23;11.83;;;;;;;6.10;86.42;97368.22;4976268;28;20421;-63
2020/12/07 07:30:18;;;;;;;18.47;12.93;;;;;;;6.08;86.77;97382.66;4975718;28;20045;-63
2020/12/07 07:32:46;;;;;;;20.20;12.67;;;;;;;6.19;86.89;97393.47;4975751;28;20062;-63
2020/12/07 07:35:13;;;;;;;19.30;12.13;;;;;;;6.15;86.75;97396.94;4975341;28;20339;-63
2020/12/07 07:37:40;;;;;;;17.80;11.90;;;;;;;6.17;86.70;97395.19;4976040;28;20053;-62
2020/12/07 07:40:09;;;;;;;18.13;11.77;;;;;;;6.18;87.09;97388.41;4975710;28;20043;-63
2020/12/07 07:42:41;;;;;;;16.67;11.67;;;;;;;6.20;86.77;97392.56;4975608;28;20412;-63
2020/12/07 07:45:07;;;;;;;16.93;12.77;;;;;;;6.14;86.95;97396.97;4975597;28;20037;-64
2020/12/07 07:47:41;;;;;;;16.53;11.33;;;;;;;6.21;86.61;97396.81;4975422;28;20054;-62
2020/12/07 08:01:36;;;;;;;19.70;12.70;;;;;;;6.26;86.02;97427.25;4971921;28;20033;-62
2020/12/07 08:12:50;;;;;;;16.60;11.10;;;;;;;6.32;85.78;97420.28;4976796;28;20124;-63
2020/12/07 08:15:47;;;;;;;17.93;11.87;;;;;;;6.31;86.04;97428.00;4973865;28;20093;-63
2020/12/07 08:18:18;;;;;;;16.87;12.33;;;;;;;6.31;85.97;97436.47;4933282;28;20034;-62
2020/12/07 08:20:54;;;;;;;17.67;12.10;;;;;;;6.37;86.23;97448.19;4975137;28;20023;-61
2020/12/07 08:23:26;;;;;;;16.67;11.17;;;;;;;6.37;85.86;97441.41;4977042;28;20014;-61
2020/12/07 08:25:52;;;;;;;15.83;11.47;;;;;;;6.34;85.82;97459.28;4973756;28;20176;-61
2020/12/07 08:28:28;;;;;;;16.37;12.07;;;;;;;6.31;85.81;97463.63;4978768;28;20081;-61
2020/12/07 08:30:57;;;;;;;15.90;10.93;;;;;;;6.27;85.95;97457.75;4976579;28;20022;-62
2020/12/07 08:33:22;;;;;;;19.50;12.37;;;;;;;6.36;85.75;97457.56;4960905;28;20023;-61
2020/12/07 08:35:48;;;;;;;19.10;12.57;;;;;;;6.38;85.71;97458.34;4978523;28;20033;-60
2020/12/07 08:38:30;;;;;;;17.87;12.03;;;;;;;6.45;85.80;97453.16;4978155;28;20113;-61
2020/12/07 08:41:09;;;;;;;19.67;11.57;;;;;;;6.51;85.40;97450.44;4975976;28;20027;-61
2020/12/07 08:43:35;;;;;;;18.60;12.23;;;;;;;6.45;85.79;97443.78;4975990;28;20038;-62
2020/12/07 08:46:02;;;;;;;18.27;12.50;;;;;;;6.41;86.27;97460.81;4978161;28;20022;-60
2020/12/07 08:48:27;;;;;;;19.07;12.57;;;;;;;6.47;85.78;97469.22;4977943;28;20039;-61
2020/12/07 08:50:54;;;;;;;19.57;12.87;;;;;;;6.46;86.00;97468.38;4978652;28;20038;-61
2020/12/07 08:53:20;;;;;;;21.87;12.90;;;;;;;6.51;86.40;97460.63;4978545;28;20027;-62
2020/12/07 08:55:46;;;;;;;20.53;13.37;;;;;;;6.40;85.75;97474.44;4978939;28;20101;-62
2020/12/07 08:58:12;;;;;;;18.40;13.47;;;;;;;6.48;86.04;97479.38;4975469;28;20185;-62
2020/12/07 09:00:38;;;;;;;18.37;12.90;;;;;;;6.55;85.57;97458.00;4980405;28;20026;-62
2020/12/07 09:03:03;;;;;;;18.47;13.03;;;;;;;6.59;85.21;97472.34;4977516;28;20057;-62
2020/12/07 09:05:29;;;;;;;21.03;14.10;;;;;;;6.47;85.75;97477.69;4977918;28;20026;-61
2020/12/07 09:07:54;;;;;;;21.23;14.20;;;;;;;6.36;86.17;97483.03;4977774;28;20037;-62
2020/12/07 09:10:19;;;;;;;25.63;17.80;;;;;;;6.36;86.45;97492.38;4977339;28;20026;-62
2020/12/07 09:12:45;;;;;;;27.37;17.00;;;;;;;6.41;86.51;97491.38;4977641;28;20485;-62
2020/12/07 09:15:10;;;;;;;29.70;17.97;;;;;;;6.32;86.55;97494.09;4977627;28;20026;-62
2020/12/07 09:17:36;;;;;;;23.37;15.53;;;;;;;6.40;86.99;97501.63;4977791;28;20499;-62
2020/12/07 09:20:02;;;;;;;22.33;14.93;;;;;;;6.51;85.93;97494.56;4977761;28;20098;-63
2020/12/07 09:22:27;;;;;;;25.83;16.50;;;;;;;6.60;85.56;97491.00;4977726;28;20113;-62
2020/12/07 09:24:53;;;;;;;26.13;16.67;;;;;;;6.66;85.15;97484.03;4976885;28;20365;-62
2020/12/07 09:27:18;;;;;;;24.37;15.27;;;;;;;6.72;84.85;97489.03;4960244;28;20033;-63
2020/12/07 09:29:44;;;;;;;26.50;16.50;;;;;;;6.83;85.24;97483.69;4977978;28;20102;-62
2020/12/07 09:32:10;;;;;;;24.80;17.07;;;;;;;7.00;84.39;97473.94;4977671;28;20495;-62
2020/12/07 09:34:36;;;;;;;26.00;16.90;;;;;;;7.07;83.05;97469.53;4976828;28;20082;-63
2020/12/07 09:37:02;;;;;;;24.33;16.37;;;;;;;7.09;83.37;97478.81;4960130;28;20031;-61
2020/12/07 09:39:28;;;;;;;23.80;17.20;;;;;;;7.12;83.17;97477.91;4977259;28;20050;-63
2020/12/07 09:41:53;;;;;;;27.00;18.90;;;;;;;7.05;83.83;97478.91;4977474;28;20027;-63
2020/12/07 09:44:18;;;;;;;22.77;15.53;;;;;;;7.02;84.21;97474.75;4977454;28;20050;-63
2020/12/07 09:46:44;;;;;;;20.77;14.03;;;;;;;7.03;84.06;97481.53;4976862;28;20113;-64
2020/12/07 09:49:09;;;;;;;19.93;14.03;;;;;;;7.00;83.59;97478.22;4977366;28;20090;-63
2020/12/07 09:51:34;;;;;;;20.50;13.90;;;;;;;7.02;83.38;97472.19;4977241;28;20026;-63
2020/12/07 09:54:00;;;;;;;20.70;13.70;;;;;;;6.97;83.96;97476.56;4976969;28;20018;-63
2020/12/07 09:56:29;;;;;;;22.47;15.13;;;;;;;7.07;83.94;97483.13;4977271;28;20026;-63
2020/12/07 09:58:56;;;;;;;21.40;13.80;;;;;;;6.95;83.61;97480.88;4977115;28;20113;-63
2020/12/07 10:01:21;;;;;;;29.07;17.77;;;;;;;6.84;83.68;97483.66;4976824;28;20034;-63
2020/12/07 10:03:46;;;;;;;20.43;13.10;;;;;;;6.78;84.71;97494.00;4976353;28;20018;-64
2020/12/07 10:06:12;;;;;;;17.63;12.30;;;;;;;6.73;84.95;97488.16;4959239;28;20430;-63
2020/12/07 10:08:37;;;;;;;22.00;14.33;;;;;;;6.75;84.69;97485.56;4977223;28;20027;-63
2020/12/07 10:11:03;;;;;;;22.67;12.83;;;;;;;6.80;84.81;97489.69;4961881;28;20027;-63
2020/12/07 10:13:28;;;;;;;21.60;13.60;;;;;;;6.76;84.57;97484.69;4976477;28;20109;-63
2020/12/07 10:15:54;;;;;;;24.73;16.13;;;;;;;6.67;84.76;97483.19;4976665;28;20041;-64
2020/12/07 10:18:19;;;;;;;21.47;14.20;;;;;;;6.72;85.23;97488.19;4976650;28;20022;-64
2020/12/07 10:20:46;;;;;;;21.13;16.03;;;;;;;6.66;85.00;97481.50;4976462;28;20037;-63
2020/12/07 10:23:11;;;;;;;23.53;15.23;;;;;;;6.69;85.17;97471.28;4976418;28;20463;-64
2020/12/07 10:25:37;;;;;;;19.97;14.03;;;;;;;6.70;84.71;97474.66;4976664;28;20054;-63
2020/12/07 10:28:02;;;;;;;19.10;13.97;;;;;;;6.76;84.66;97477.88;4976755;28;20026;-63
2020/12/07 10:30:28;;;;;;;17.60;13.47;;;;;;;6.86;84.62;97478.53;4976648;28;20443;-64
2020/12/07 10:32:53;;;;;;;21.83;13.70;;;;;;;6.87;84.16;97477.66;4976540;28;20505;-63
2020/12/07 10:35:18;;;;;;;21.10;13.60;;;;;;;6.85;84.47;97480.22;4976624;28;20564;-64
2020/12/07 10:37:45;;;;;;;25.30;14.30;;;;;;;6.86;84.09;97484.47;4976403;28;20086;-64
2020/12/07 10:40:12;;;;;;;20.43;15.03;;;;;;;7.01;84.30;97478.16;4975814;28;20042;-64
2020/12/07 10:42:37;;;;;;;24.60;16.03;;;;;;;7.01;83.33;97475.63;4974626;28;20046;-63
2020/12/07 10:45:04;;;;;;;21.77;14.23;;;;;;;7.12;83.96;97480.47;4974210;28;20062;-63
2020/12/07 10:47:29;;;;;;;23.13;15.03;;;;;;;7.01;83.79;97484.97;4976119;28;20074;-63
2020/12/07 10:49:55;;;;;;;23.70;15.87;;;;;;;7.15;83.42;97486.31;4976312;28;20463;-64
2020/12/07 10:52:21;;;;;;;23.57;16.10;;;;;;;7.14;83.22;97483.81;4959036;28;20033;-65
2020/12/07 10:54:47;;;;;;;21.27;14.70;;;;;;;7.13;83.27;97490.59;4976049;28;20448;-63
2020/12/07 10:57:12;;;;;;;21.00;14.93;;;;;;;7.16;83.56;97495.66;4958525;28;20122;-64
2020/12/07 10:59:38;;;;;;;20.37;13.37;;;;;;;7.19;82.89;97493.03;4975783;28;20030;-62
2020/12/07 11:02:03;;;;;;;21.43;15.17;;;;;;;7.27;83.47;97486.03;4976039;28;20054;-61
2020/12/07 11:04:29;;;;;;;22.67;15.17;;;;;;;7.34;83.21;97479.91;4975726;28;20042;-62
2020/12/07 11:06:57;;;;;;;21.60;14.60;;;;;;;7.30;83.44;97480.84;4958610;28;20030;-62
2020/12/07 11:09:25;;;;;;;20.47;14.90;;;;;;;7.32;83.54;97475.72;4975730;28;20304;-62
2020/12/07 11:11:55;;;;;;;20.00;14.43;;;;;;;7.39;83.56;97478.94;4975197;28;20041;-62
2020/12/07 11:14:21;;;;;;;19.23;13.57;;;;;;;7.40;82.37;97485.72;4973271;28;20048;-62
2020/12/07 11:16:46;;;;;;;20.63;15.60;;;;;;;7.43;82.39;97472.88;4975482;28;20094;-63
2020/12/07 11:19:12;;;;;;;21.47;16.50;;;;;;;7.49;82.34;97477.84;4975051;28;20041;-64
2020/12/07 11:21:37;;;;;;;20.10;14.70;;;;;;;7.44;82.39;97477.97;4975588;28;20110;-64
2020/12/07 11:24:03;;;;;;;19.07;14.60;;;;;;;7.46;82.69;97473.69;4975495;28;20452;-64
2020/12/07 11:26:28;;;;;;;23.10;13.77;;;;;;;7.47;82.12;97477.88;4975292;28;20105;-64
2020/12/07 11:28:53;;;;;;;20.60;15.07;;;;;;;7.56;82.12;97476.81;4974004;28;20054;-64
2020/12/07 11:31:19;;;;;;;20.43;14.23;;;;;;;7.63;81.22;97475.78;4973093;28;20027;-64
2020/12/07 11:33:44;;;;;;;18.53;13.83;;;;;;;7.62;81.50;97481.75;4973755;28;20034;-64
2020/12/07 11:36:10;;;;;;;20.20;15.60;;;;;;;7.80;81.23;97476.19;4973679;28;20065;-64
2020/12/07 11:44:10;;;;;;;20.33;15.17;;;;;;;8.00;80.42;97484.13;4975444;28;20184;-64
2020/12/07 11:46:43;;;;;;;18.40;13.53;;;;;;;8.04;80.55;97482.34;4975518;28;20059;-64
2020/12/07 11:49:09;;;;;;;19.70;13.37;;;;;;;8.01;80.91;97485.81;4975618;28;20030;-63
2020/12/07 11:51:34;;;;;;;21.57;13.07;;;;;;;7.92;80.64;97487.78;4975868;28;20063;-64
2020/12/07 11:54:00;;;;;;;19.63;14.17;;;;;;;7.88;81.39;97492.13;4975448;28;20069;-64
2020/12/07 11:56:30;;;;;;;20.90;14.03;;;;;;;7.80;81.52;97486.41;4975906;28;20136;-63
2020/12/07 11:58:55;;;;;;;20.60;14.77;;;;;;;7.67;82.30;97483.31;4979782;28;20030;-63
2020/12/07 12:01:21;;;;;;;23.30;14.50;;;;;;;7.62;82.71;97477.50;4979824;28;20329;-64